Time;durP1;ratioP1;P1;durP2;ratioP2;P2;SDS_P1;SDS_P2;PMS_P1;PMS_P2;Temp;Humidity;BMP_temperature;BMP_pressure;BME280_temperature;BME280_humidity;BME280_pressure;Samples;Min_cycle;Max_cycle;Signal;HPM_P1;HPM_P2
2023/07/01 00:02:01;;;;;;;19.00;11.10;;;;;;;19.66;69.83;99688.11;109585;1270;22300;-79
2023/07/01 00:05:34;;;;;;;12.30;11.00;;;;;;;19.63;70.09;99686.23;109545;1271;23691;-78
2023/07/01 00:08:39;;;;;;;;;;;;;;;;;;;;;
2023/07/01 00:11:56;;;;;;;15.50;12.20;;;;;;;19.65;70.21;99687.66;108930;1280;21995;-78
2023/07/01 00:15:14;;;;;;;14.50;11.80;;;;;;;19.62;70.19;99685.23;109138;1274;23087;-78
2023/07/01 00:18:40;;;;;;;14.00;11.50;;;;;;;19.62;70.21;99684.55;109188;1274;23717;-78
2023/07/01 00:21:29;;;;;;;20.20;12.00;;;;;;;19.62;70.39;99684.75;109073;1274;21982;-78
2023/07/01 00:25:02;;;;;;;15.60;11.90;;;;;;;19.63;70.32;99683.40;108921;1278;23737;-78
2023/07/01 00:28:42;;;;;;;19.40;12.90;;;;;;;19.58;70.40;99679.30;108855;1273;21974;-79
2023/07/01 00:32:39;;;;;;;;;;;;;;;;;;;;;
2023/07/01 00:36:03;;;;;;;16.30;13.00;;;;;;;19.53;70.62;99671.24;109651;1269;23768;-79
2023/07/01 00:39:34;;;;;;;18.30;13.80;;;;;;;19.44;70.75;99657.84;109853;1269;22111;-78
2023/07/01 00:43:05;;;;;;;22.10;12.10;;;;;;;19.54;70.72;99666.74;109657;1264;22027;-79
2023/07/01 00:47:02;;;;;;;;;;;;;;;;;;;;;
2023/07/01 00:50:35;;;;;;;15.50;12.50;;;;;;;19.48;70.79;99677.46;109666;1272;22010;-79
2023/07/01 00:53:33;;;;;;;15.00;12.80;;;;;;;19.49;70.87;99681.26;109826;1271;23035;-78
2023/07/01 00:56:55;;;;;;;17.10;13.50;;;;;;;19.48;70.88;99679.05;109423;1272;21972;-80
2023/07/01 01:00:03;;;;;;;16.70;13.40;;;;;;;19.47;70.92;99677.01;110045;1263;23743;-78
2023/07/01 01:03:55;;;;;;;28.50;14.50;;;;;;;19.45;70.76;99678.43;110409;1263;22267;-78
2023/07/01 01:08:03;;;;;;;20.00;14.00;;;;;;;19.37;70.89;99675.59;110436;1256;21963;-80
2023/07/01 01:12:29;;;;;;;;;;;;;;;;;;;;;
2023/07/01 01:20:52;;;;;;;;;;;;;;;;;;;;;
2023/07/01 01:25:13;;;;;;;17.90;15.80;;;;;;;19.14;71.40;99643.84;109680;1274;22182;-79
2023/07/01 01:28:33;;;;;;;17.50;15.00;;;;;;;19.19;71.53;99651.73;109191;1274;21990;-79
2023/07/01 01:31:39;;;;;;;;;;;;;;;;;;;;;
2023/07/01 01:35:50;;;;;;;15.70;14.10;;;;;;;19.15;71.54;99646.89;108951;1280;21987;-78
2023/07/01 01:43:19;;;;;;;;;;;;;;;;;;;;;
2023/07/01 01:46:24;;;;;;;18.50;15.50;;;;;;;19.04;71.65;99653.85;108191;1291;22003;-81
2023/07/01 01:49:53;;;;;;;19.50;14.90;;;;;;;18.98;71.70;99654.51;108330;1287;22003;-80
2023/07/01 01:53:23;;;;;;;19.80;16.00;;;;;;;18.93;71.79;99655.31;108235;1290;22210;-79
2023/07/01 01:56:32;;;;;;;;;;;;;;;;;;;;;
2023/07/01 02:00:27;;;;;;;;;;;;;;;;;;;;;
2023/07/01 02:04:04;;;;;;;;;;;;;;;;;;;;;
2023/07/01 02:07:27;;;;;;;20.40;16.30;;;;;;;18.78;72.27;99652.27;108906;1277;22436;-79
2023/07/01 02:11:04;;;;;;;24.10;18.40;;;;;;;18.75;72.27;99652.50;109185;1273;22986;-80
2023/07/01 02:14:47;;;;;;;20.10;16.80;;;;;;;18.72;72.53;99651.89;109362;1273;21975;-78
2023/07/01 02:18:05;;;;;;;20.60;16.10;;;;;;;18.69;72.46;99651.45;109681;1269;22071;-79
2023/07/01 02:21:23;;;;;;;19.10;16.10;;;;;;;18.65;72.58;99654.44;110293;1268;24356;-79
2023/07/01 02:24:29;;;;;;;19.10;16.40;;;;;;;18.63;72.65;99653.30;110063;1261;22817;-79
2023/07/01 02:28:20;;;;;;;;;;;;;;;;;;;;;
2023/07/01 02:32:28;;;;;;;20.40;16.40;;;;;;;18.55;72.92;99646.96;110554;1265;23696;-81
2023/07/01 02:36:10;;;;;;;22.00;17.50;;;;;;;18.50;73.08;99637.48;109521;1273;22043;-79
2023/07/01 02:40:13;;;;;;;25.90;18.90;;;;;;;18.48;73.13;99637.45;109133;1278;21999;-80
2023/07/01 02:44:13;;;;;;;;;;;;;;;;;;;;;
2023/07/01 02:47:45;;;;;;;24.00;17.10;;;;;;;18.49;73.43;99637.95;108725;1285;23078;-79
2023/07/01 02:51:13;;;;;;;;;;;;;;;;;;;;;
2023/07/01 02:57:56;;;;;;;20.80;17.70;;;;;;;18.49;73.65;99662.08;107707;1294;23748;-79
2023/07/01 03:01:30;;;;;;;;;;;;;;;;;;;;;
2023/07/01 03:04:56;;;;;;;22.90;18.70;;;;;;;18.54;73.74;99667.33;107530;1291;22000;-78
2023/07/01 03:08:17;;;;;;;25.60;18.60;;;;;;;18.51;73.80;99665.60;108188;1289;22758;-79
2023/07/01 03:11:30;;;;;;;;;;;;;;;;;;;;;
2023/07/01 03:18:24;;;;;;;;;;;;;;;;;;;;;
2023/07/01 03:21:52;;;;;;;35.50;32.00;;;;;;;18.63;73.93;99664.48;109133;1276;21999;-79
2023/07/01 03:26:11;;;;;;;25.90;21.60;;;;;;;18.63;73.94;99666.39;109364;1276;23053;-79
2023/07/01 03:29:17;;;;;;;26.90;24.30;;;;;;;18.63;73.97;99659.30;108610;1281;24546;-81
2023/07/01 03:32:34;;;;;;;36.00;32.30;;;;;;;18.68;74.01;99663.52;108828;1280;22002;-78
2023/07/01 03:40:23;;;;;;;23.80;21.40;;;;;;;18.71;73.90;99662.19;109199;1276;21982;-78
2023/07/01 03:43:18;;;;;;;22.80;20.40;;;;;;;18.72;73.81;99665.61;109107;1275;23655;-79
2023/07/01 03:51:24;;;;;;;25.20;22.50;;;;;;;18.71;73.81;99668.02;109102;1277;22166;-79
2023/07/01 03:55:07;;;;;;;;;;;;;;;;;;;;;
2023/07/01 03:58:31;;;;;;;25.60;21.10;;;;;;;18.71;73.50;99669.05;109134;1277;21975;-79
2023/07/01 04:02:00;;;;;;;23.10;19.70;;;;;;;18.75;73.21;99675.46;108671;1282;21999;-79
2023/07/01 04:05:21;;;;;;;21.00;18.70;;;;;;;18.74;73.36;99674.84;108763;1277;21997;-79
2023/07/01 04:08:42;;;;;;;25.10;19.80;;;;;;;18.75;73.21;99671.56;109241;1273;21997;-78
2023/07/01 04:15:32;;;;;;;;;;;;;;;;;;;;;
2023/07/01 04:18:13;;;;;;;21.40;19.30;;;;;;;18.78;72.90;99663.42;109073;1275;22234;-78
2023/07/01 04:21:19;;;;;;;;;;;;;;;;;;;;;
2023/07/01 04:24:47;;;;;;;19.30;17.20;;;;;;;18.78;72.64;99660.61;109556;1272;23054;-79
2023/07/01 04:27:42;;;;;;;18.70;16.60;;;;;;;18.74;72.58;99651.37;109693;1265;22730;-79
2023/07/01 04:30:39;;;;;;;29.00;17.10;;;;;;;18.83;72.73;99659.52;109577;1273;22230;-81
2023/07/01 04:33:17;;;;;;;19.80;17.00;;;;;;;18.89;72.64;99662.32;109598;1272;21988;-82
2023/07/01 04:36:00;;;;;;;21.40;17.40;;;;;;;18.95;72.46;99662.68;109432;1273;23599;-82
2023/07/01 04:38:39;;;;;;;20.10;18.10;;;;;;;19.02;72.41;99661.23;109730;1273;22119;-83
2023/07/01 04:41:32;;;;;;;20.80;18.60;;;;;;;19.06;72.22;99661.05;109499;1273;21987;-82
2023/07/01 04:44:11;;;;;;;20.50;18.40;;;;;;;19.12;72.24;99658.80;109434;1273;23970;-82
2023/07/01 04:47:15;;;;;;;19.60;17.50;;;;;;;19.21;72.03;99653.84;110241;1268;22430;-81
2023/07/01 04:50:10;;;;;;;19.80;17.70;;;;;;;19.29;71.80;99647.89;110892;1262;22084;-81
2023/07/01 04:52:47;;;;;;;20.00;17.20;;;;;;;19.36;71.69;99647.42;110719;1262;21981;-82
2023/07/01 04:55:24;;;;;;;22.30;18.40;;;;;;;19.48;71.69;99645.88;110970;1255;22289;-80
2023/07/01 04:58:19;;;;;;;20.60;17.60;;;;;;;19.66;71.58;99643.22;111456;1255;23473;-81
2023/07/01 05:01:07;;;;;;;18.50;16.50;;;;;;;19.88;71.72;99647.20;111187;1255;21968;-82
2023/07/01 05:03:40;;;;;;;17.00;15.10;;;;;;;20.04;70.78;99647.52;111192;1255;23717;-81
2023/07/01 05:06:26;;;;;;;13.70;12.30;;;;;;;20.10;69.82;99651.58;111222;1255;22249;-82
2023/07/01 05:09:09;;;;;;;17.30;11.90;;;;;;;20.16;69.34;99651.29;111364;1255;21962;-82
2023/07/01 05:12:02;;;;;;;16.50;13.10;;;;;;;20.22;68.85;99653.39;110846;1261;22031;-86
2023/07/01 05:15:36;;;;;;;14.80;12.10;;;;;;;20.26;68.19;99655.52;110388;1266;22201;-84
2023/07/01 05:22:48;;;;;;;13.40;11.00;;;;;;;20.23;67.22;99653.80;109712;1273;21930;-85
2023/07/01 05:25:48;;;;;;;15.40;11.20;;;;;;;20.12;66.74;99642.96;109029;1282;22460;-83
2023/07/01 05:28:57;;;;;;;;;;;;;;;;;;;;;
2023/07/01 05:31:57;;;;;;;13.30;10.80;;;;;;;20.12;66.64;99642.98;108989;1280;21999;-84
2023/07/01 05:35:16;;;;;;;15.70;11.00;;;;;;;20.12;66.56;99633.79;109338;1274;21999;-83
2023/07/01 05:42:35;;;;;;;15.60;12.50;;;;;;;20.08;66.52;99635.06;110157;1269;21996;-85
2023/07/01 05:45:43;;;;;;;13.20;9.80;;;;;;;20.05;66.56;99633.91;109486;1275;23807;-88
2023/07/01 05:48:45;;;;;;;13.70;11.40;;;;;;;20.15;66.34;99653.86;109565;1275;21982;-86
2023/07/01 05:51:37;;;;;;;14.00;12.10;;;;;;;20.13;65.98;99660.95;109241;1275;23067;-82
2023/07/01 05:54:31;;;;;;;14.10;11.40;;;;;;;20.13;66.00;99664.05;108967;1281;22029;-82
2023/07/01 05:57:10;;;;;;;15.60;10.80;;;;;;;20.17;65.75;99664.11;109202;1277;22108;-80
2023/07/01 06:00:04;;;;;;;13.00;11.60;;;;;;;20.17;65.71;99662.49;109157;1277;22082;-82
2023/07/01 06:02:58;;;;;;;16.00;12.00;;;;;;;20.16;65.62;99664.21;109539;1271;22056;-81
2023/07/01 06:05:37;;;;;;;15.10;12.00;;;;;;;20.18;65.68;99666.63;109523;1271;21976;-82
2023/07/01 06:08:54;;;;;;;13.90;11.10;;;;;;;20.25;65.89;99673.61;109919;1271;22865;-82
2023/07/01 06:12:21;;;;;;;14.80;11.30;;;;;;;20.34;65.80;99672.52;109950;1265;22445;-81
2023/07/01 06:15:03;;;;;;;14.90;10.90;;;;;;;20.43;65.82;99670.38;109943;1260;22995;-80
2023/07/01 06:18:09;;;;;;;11.10;9.50;;;;;;;20.59;65.82;99668.87;110856;1259;22001;-82
2023/07/01 06:21:26;;;;;;;;;;;;;;;;;;;;;
2023/07/01 06:24:17;;;;;;;10.90;9.80;;;;;;;20.94;64.98;99669.56;110901;1260;24437;-81
2023/07/01 06:27:30;;;;;;;11.10;10.00;;;;;;;21.17;64.87;99673.27;110764;1260;24741;-81
2023/07/01 06:30:27;;;;;;;12.70;10.80;;;;;;;21.40;64.11;99661.95;110702;1260;22411;-82
2023/07/01 06:33:24;;;;;;;11.10;9.80;;;;;;;21.63;63.50;99666.02;111084;1256;21953;-82
2023/07/01 06:36:22;;;;;;;12.90;11.10;;;;;;;21.84;62.91;99664.92;112115;1256;21973;-83
2023/07/01 06:39:32;;;;;;;12.10;10.60;;;;;;;22.11;62.65;99665.79;111128;1255;21971;-85
2023/07/01 06:42:22;;;;;;;10.10;9.20;;;;;;;22.50;62.40;99664.84;110887;1260;23686;-82
2023/07/01 06:45:11;;;;;;;10.00;9.10;;;;;;;22.79;60.76;99664.30;110786;1260;23055;-82
2023/07/01 06:48:01;;;;;;;;;;;;;;;22.96;59.17;99663.67;111075;1260;23660;-81
2023/07/01 06:50:38;;;;;;;25.20;9.70;;;;;;;22.91;58.65;99657.42;111052;1260;22111;-78
2023/07/01 06:53:25;;;;;;;10.00;8.00;;;;;;;23.02;58.39;99666.62;110410;1260;22178;-80
2023/07/01 06:56:03;;;;;;;9.60;8.70;;;;;;;23.06;57.56;99668.52;110788;1250;21973;-78
2023/07/01 06:58:46;;;;;;;10.50;9.50;;;;;;;23.00;56.92;99667.15;110802;1260;22602;-78
2023/07/01 07:01:42;;;;;;;10.00;9.10;;;;;;;22.87;56.48;99665.97;110980;1256;23710;-85
2023/07/01 07:04:17;;;;;;;10.60;9.50;;;;;;;22.79;57.08;99666.43;111763;1256;21969;-84
2023/07/01 07:07:02;;;;;;;9.70;8.80;;;;;;;22.83;57.55;99664.11;111493;1256;22050;-84
2023/07/01 07:10:00;;;;;;;9.70;8.80;;;;;;;23.01;58.13;99652.33;111618;1255;23802;-84
2023/07/01 07:12:52;;;;;;;15.10;9.30;;;;;;;23.22;57.29;99655.20;111464;1256;21905;-80
2023/07/01 07:15:47;;;;;;;14.00;9.60;;;;;;;23.31;56.19;99671.01;110754;1261;23584;-80
2023/07/01 07:18:36;;;;;;;13.80;9.60;;;;;;;23.22;55.93;99676.73;111039;1261;22516;-83
2023/07/01 07:21:16;;;;;;;8.90;8.00;;;;;;;23.14;56.14;99676.81;110905;1261;24287;-82
2023/07/01 07:24:33;;;;;;;11.30;9.20;;;;;;;23.13;56.32;99676.55;111008;1261;25013;-84
2023/07/01 07:28:16;;;;;;;10.80;9.70;;;;;;;23.12;56.47;99678.40;110802;1261;23043;-83
2023/07/01 07:31:23;;;;;;;10.40;9.40;;;;;;;23.24;56.91;99674.86;109961;1268;21984;-76
2023/07/01 07:38:29;;;;;;;10.30;9.20;;;;;;;23.54;55.62;99663.62;110287;1267;21988;-79
2023/07/01 07:41:24;;;;;;;;;;;;;;;;;;;;;
2023/07/01 07:44:48;;;;;;;10.30;9.40;;;;;;;23.30;54.15;99658.46;109831;1272;22018;-80
2023/07/01 07:52:13;;;;;;;9.30;8.40;;;;;;;22.93;54.86;99661.98;109808;1267;22743;-79
2023/07/01 07:54:58;;;;;;;9.90;8.90;;;;;;;22.75;55.00;99656.52;109853;1270;23620;-78
2023/07/01 07:58:44;;;;;;;10.10;9.10;;;;;;;22.62;55.63;99655.52;109898;1270;21987;-79
2023/07/01 08:01:51;;;;;;;10.40;8.50;;;;;;;22.47;56.12;99654.16;110017;1270;21989;-78
2023/07/01 08:05:09;;;;;;;9.30;8.40;;;;;;;22.44;56.78;99653.42;109387;1276;22197;-77
2023/07/01 08:08:31;;;;;;;;;;;;;;;;;;;;;
2023/07/01 08:11:28;;;;;;;;;;;;;;;22.36;56.85;99642.34;109263;1279;21979;-80
2023/07/01 08:14:28;;;;;;;9.80;9.00;;;;;;;22.29;57.15;99649.52;109198;1274;22027;-83
2023/07/01 08:18:03;;;;;;;14.00;12.90;;;;;;;22.30;57.28;99641.30;109601;1274;21993;-83
2023/07/01 08:20:50;;;;;;;10.20;9.10;;;;;;;22.32;57.44;99638.80;109567;1275;22012;-81
2023/07/01 08:27:57;;;;;;;10.60;9.30;;;;;;;22.36;57.44;99642.09;109605;1274;22851;-81
2023/07/01 08:31:41;;;;;;;;;;;;;;;;;;;;;
2023/07/01 08:35:48;;;;;;;;;;;;;;;;;;;;;
2023/07/01 08:39:48;;;;;;;;;;;;;;;;;;;;;
2023/07/01 08:43:28;;;;;;;10.50;9.60;;;;;;;23.05;55.51;99642.74;109311;1278;21984;-82
2023/07/01 08:47:14;;;;;;;28.20;25.80;;;;;;;23.00;55.33;99641.59;108440;1291;22000;-81
2023/07/01 08:50:18;;;;;;;9.40;8.50;;;;;;;23.13;55.97;99635.92;108098;1292;23654;-82
2023/07/01 08:53:13;;;;;;;7.60;6.90;;;;;;;23.23;55.32;99624.45;108362;1290;23155;-83
2023/07/01 08:56:30;;;;;;;7.90;7.00;;;;;;;23.37;55.18;99637.14;108322;1292;21820;-84
2023/07/01 08:59:43;;;;;;;;;;;;;;;;;;;;;
2023/07/01 09:02:52;;;;;;;;;;;;;;;;;;;;;
2023/07/01 09:06:07;;;;;;;10.40;6.80;;;;;;;23.60;53.84;99639.04;109445;1274;23624;-83
2023/07/01 09:13:32;;;;;;;8.40;7.60;;;;;;;23.34;53.85;99631.29;108683;1292;21903;-87
2023/07/01 09:17:05;;;;;;;;;;;;;;;;;;;;;
2023/07/01 09:20:17;;;;;;;7.70;5.70;;;;;;;23.73;54.41;99614.23;107817;1298;22009;-89
2023/07/01 09:23:01;;;;;;;7.00;6.30;;;;;;;23.98;54.04;99616.33;107748;1294;22001;-83
2023/07/01 09:25:41;;;;;;;7.70;5.80;;;;;;;24.27;53.62;99616.55;108162;1290;23752;-82
2023/07/01 09:28:46;;;;;;;7.40;6.60;;;;;;;24.58;53.01;99613.68;108232;1289;22016;-83
2023/07/01 09:31:27;;;;;;;8.40;7.60;;;;;;;24.92;52.35;99613.36;108127;1294;22014;-82
2023/07/01 09:34:21;;;;;;;7.40;6.80;;;;;;;25.35;51.98;99612.69;108048;1293;23899;-82
2023/07/01 09:37:28;;;;;;;8.90;8.10;;;;;;;25.70;50.58;99606.42;107960;1293;23304;-81
2023/07/01 09:40:29;;;;;;;8.80;7.90;;;;;;;25.87;49.45;99605.98;103368;1301;22076;-83
2023/07/01 09:48:50;;;;;;;7.80;6.70;;;;;;;26.52;47.98;99595.30;108646;1288;547908;-81
2023/07/01 09:52:04;;;;;;;8.50;7.30;;;;;;;26.85;47.15;99592.45;109148;1282;22005;-80
2023/07/01 09:55:06;;;;;;;9.90;7.20;;;;;;;27.01;46.38;99587.33;109798;1275;22843;-78
2023/07/01 09:58:21;;;;;;;8.00;7.10;;;;;;;27.14;45.85;99585.31;110034;1270;23630;-82
2023/07/01 10:04:52;;;;;;;7.70;6.90;;;;;;;27.05;44.93;99573.92;109975;1271;22010;-81
2023/07/01 10:07:47;;;;;;;7.90;6.60;;;;;;;26.93;45.29;99572.64;109319;1271;21979;-81
2023/07/01 10:11:05;;;;;;;8.00;6.60;;;;;;;26.87;45.10;99566.21;109250;1276;23620;-79
2023/07/01 10:14:15;;;;;;;8.20;7.40;;;;;;;26.75;45.16;99565.45;109399;1276;22770;-81
2023/07/01 10:17:19;;;;;;;9.20;6.50;;;;;;;26.50;45.04;99558.64;109581;1276;23066;-82
2023/07/01 10:21:19;;;;;;;8.60;6.60;;;;;;;26.38;45.59;99557.70;108813;1287;21998;-83
2023/07/01 10:24:43;;;;;;;8.30;7.00;;;;;;;26.30;45.72;99560.95;109027;1284;22355;-81
2023/07/01 10:27:44;;;;;;;10.90;7.20;;;;;;;26.17;45.36;99557.08;109744;1275;22960;-84
2023/07/01 10:30:59;;;;;;;;;;;;;;;;;;;;;
2023/07/01 10:34:00;;;;;;;8.10;7.10;;;;;;;25.86;46.39;99547.28;110648;1268;21984;-81
2023/07/01 10:37:56;;;;;;;7.40;6.70;;;;;;;25.70;46.50;99544.26;110686;1266;23602;-81
2023/07/01 10:41:26;;;;;;;;;;;;;;;;;;;;;
2023/07/01 10:46:45;;;;;;;;;;;;;;;;;;;;;
2023/07/01 10:51:14;;;;;;;;;;;;;;;;;;;;;
2023/07/01 10:54:46;;;;;;;;;;;;;;;;;;;;;
2023/07/01 11:01:55;;;;;;;10.60;9.30;;;;;;;24.23;49.37;99525.73;107715;1303;23975;-82
2023/07/01 11:05:06;;;;;;;16.10;14.40;;;;;;;24.22;49.63;99528.82;107514;1303;22020;-85
2023/07/01 11:08:08;;;;;;;12.30;10.70;;;;;;;24.15;49.53;99526.56;107424;1303;21966;-81
2023/07/01 11:10:49;;;;;;;11.60;10.10;;;;;;;24.06;49.51;99526.95;107446;1303;22015;-81
2023/07/01 11:13:26;;;;;;;20.10;16.90;;;;;;;24.03;49.88;99528.19;107306;1303;21772;-83
2023/07/01 11:16:18;;;;;;;16.80;15.10;;;;;;;24.05;50.27;99520.63;107666;1298;22031;-83
2023/07/01 11:19:44;;;;;;;11.50;10.40;;;;;;;24.07;50.37;99523.33;108009;1298;23818;-84
2023/07/01 11:22:46;;;;;;;20.50;18.60;;;;;;;24.02;50.67;99520.08;108739;1292;21863;-83
2023/07/01 11:25:49;;;;;;;11.50;9.20;;;;;;;23.88;50.65;99498.97;108592;1283;22364;-83
2023/07/01 11:29:42;;;;;;;;;;;;;;;;;;;;;
2023/07/01 11:32:18;;;;;;;13.50;11.30;;;;;;;23.92;50.29;99516.58;108915;1285;22000;-82
2023/07/01 11:35:22;;;;;;;13.90;10.20;;;;;;;23.64;50.47;99497.33;109385;1279;23005;-83
2023/07/01 11:38:37;;;;;;;11.40;10.10;;;;;;;23.63;51.19;99498.41;109057;1277;22000;-84
2023/07/01 11:41:33;;;;;;;;;;;;;;;;;;;;;
2023/07/01 11:44:15;;;;;;;13.90;10.20;;;;;;;23.82;51.44;99488.30;109347;1271;21955;-77
2023/07/01 11:47:01;;;;;;;15.60;11.40;;;;;;;23.96;51.03;99497.27;109125;1276;22504;-79
2023/07/01 11:49:39;;;;;;;15.00;11.50;;;;;;;24.08;50.93;99494.69;109160;1276;23618;-80
2023/07/01 11:52:37;;;;;;;14.00;12.40;;;;;;;24.23;50.72;99494.92;109220;1274;21986;-81
2023/07/01 11:55:43;;;;;;;12.30;11.10;;;;;;;24.47;50.71;99485.02;109340;1274;22005;-81
2023/07/01 11:58:52;;;;;;;13.10;10.50;;;;;;;24.65;50.06;99486.38;109200;1271;22017;-80
2023/07/01 12:01:41;;;;;;;14.40;9.90;;;;;;;24.77;49.74;99482.45;109062;1279;23008;-79
2023/07/01 12:04:27;;;;;;;10.60;9.60;;;;;;;24.85;49.74;99469.54;109465;1273;22011;-82
2023/07/01 12:07:17;;;;;;;12.00;10.30;;;;;;;24.92;49.23;99459.55;109406;1273;21978;-75
2023/07/01 12:10:46;;;;;;;12.30;11.00;;;;;;;24.96;48.96;99456.50;109490;1272;21981;-78
2023/07/01 12:13:37;;;;;;;26.10;20.80;;;;;;;24.99;49.09;99462.56;109315;1278;21990;-79
2023/07/01 12:17:26;;;;;;;;;;;;;;;;;;;;;
2023/07/01 12:20:09;;;;;;;13.30;11.10;;;;;;;24.97;48.84;99459.80;109639;1276;22608;-80
2023/07/01 12:22:46;;;;;;;11.60;10.50;;;;;;;24.96;48.94;99463.77;109645;1276;23679;-80
2023/07/01 12:25:17;;;;;;;13.00;11.30;;;;;;;24.98;48.74;99460.33;109506;1276;22052;-80
2023/07/01 12:27:58;;;;;;;12.40;11.10;;;;;;;25.01;48.84;99453.23;109234;1276;21993;-78
2023/07/01 12:30:34;;;;;;;12.90;11.60;;;;;;;25.10;48.79;99451.96;109171;1276;24312;-81
2023/07/01 12:33:06;;;;;;;11.60;10.60;;;;;;;25.21;48.38;99456.38;109093;1276;22003;-79
2023/07/01 12:35:55;;;;;;;16.90;11.60;;;;;;;25.15;47.86;99455.75;108728;1280;22093;-76
2023/07/01 12:38:33;;;;;;;13.80;12.40;;;;;;;25.13;48.32;99456.67;109019;1278;21997;-78
2023/07/01 12:41:13;;;;;;;15.40;13.20;;;;;;;25.21;48.49;99451.49;108750;1279;22627;-80
2023/07/01 12:43:43;;;;;;;14.20;12.10;;;;;;;25.25;48.10;99449.52;108876;1279;22012;-78
2023/07/01 12:46:28;;;;;;;13.20;12.00;;;;;;;25.27;47.74;99448.52;108735;1283;22341;-79
2023/07/01 12:49:21;;;;;;;14.40;12.90;;;;;;;25.18;47.72;99438.73;109622;1270;23845;-78
2023/07/01 12:52:00;;;;;;;13.50;12.20;;;;;;;25.23;47.95;99439.24;109663;1270;23051;-80
2023/07/01 12:54:38;;;;;;;15.40;13.80;;;;;;;25.34;47.87;99440.46;109679;1271;23000;-78
2023/07/01 12:57:25;;;;;;;16.30;14.80;;;;;;;25.30;48.02;99430.23;109646;1269;21984;-79
2023/07/01 13:00:08;;;;;;;17.30;14.90;;;;;;;25.30;48.20;99419.15;110093;1264;22245;-83
2023/07/01 13:02:55;;;;;;;15.30;13.90;;;;;;;25.30;48.10;99424.68;110144;1267;21975;-80
2023/07/01 13:05:41;;;;;;;15.50;14.00;;;;;;;25.17;48.11;99427.29;110969;1261;22652;-79
2023/07/01 13:08:31;;;;;;;16.20;14.70;;;;;;;24.97;48.40;99423.92;111060;1258;22169;-78
2023/07/01 13:11:56;;;;;;;14.10;12.90;;;;;;;24.96;49.16;99417.27;111051;1258;23676;-78
2023/07/01 13:14:31;;;;;;;13.80;12.60;;;;;;;25.07;48.88;99423.71;111157;1255;22058;-80
2023/07/01 13:17:07;;;;;;;15.40;13.80;;;;;;;25.09;48.78;99424.23;111337;1256;24381;-79
2023/07/01 13:20:13;;;;;;;15.60;13.90;;;;;;;25.11;48.26;99423.80;110927;1260;23055;-80
2023/07/01 13:23:00;;;;;;;14.60;13.30;;;;;;;25.01;48.32;99422.28;110892;1260;21997;-78
2023/07/01 13:25:39;;;;;;;15.30;13.90;;;;;;;25.07;48.20;99419.31;110997;1260;21973;-80
2023/07/01 13:28:28;;;;;;;23.80;20.70;;;;;;;25.10;47.71;99412.82;110486;1269;21981;-79
2023/07/01 13:31:04;;;;;;;18.40;16.40;;;;;;;25.13;47.26;99410.94;110089;1269;23720;-80
2023/07/01 13:33:58;;;;;;;15.30;13.90;;;;;;;25.15;47.35;99408.59;110276;1269;22193;-78
2023/07/01 13:37:14;;;;;;;17.20;14.50;;;;;;;25.14;46.80;99404.79;110253;1264;24313;-80
2023/07/01 13:40:13;;;;;;;16.90;15.40;;;;;;;24.97;46.27;99395.30;110318;1264;21991;-79
2023/07/01 13:43:12;;;;;;;16.20;14.70;;;;;;;24.84;45.78;99390.95;110680;1264;23692;-81
2023/07/01 13:46:38;;;;;;;13.90;12.40;;;;;;;24.86;45.93;99383.73;110310;1265;22082;-78
2023/07/01 13:50:12;;;;;;;16.40;14.40;;;;;;;24.91;45.39;99379.75;110595;1265;22975;-80
2023/07/01 13:53:30;;;;;;;15.50;14.10;;;;;;;24.93;45.76;99373.19;109543;1273;21993;-82
2023/07/01 13:56:42;;;;;;;16.00;14.40;;;;;;;24.96;46.13;99364.87;109054;1278;22006;-78
2023/07/01 13:59:36;;;;;;;17.40;15.20;;;;;;;25.07;46.21;99364.14;108872;1280;22001;-80
2023/07/01 14:02:21;;;;;;;18.10;15.10;;;;;;;25.12;46.13;99357.67;108983;1280;21947;-81
2023/07/01 14:05:23;;;;;;;16.30;14.40;;;;;;;25.09;46.42;99361.80;109430;1275;22253;-81
2023/07/01 14:09:00;;;;;;;15.60;14.10;;;;;;;25.04;46.55;99360.52;109578;1275;23741;-82
2023/07/01 14:12:10;;;;;;;16.30;14.80;;;;;;;25.10;46.93;99354.28;109236;1275;22005;-81
2023/07/01 14:15:42;;;;;;;15.10;13.70;;;;;;;25.07;46.47;99331.14;109346;1274;22950;-84
2023/07/01 14:18:39;;;;;;;16.00;14.30;;;;;;;25.16;46.32;99337.83;110118;1270;21993;-80
2023/07/01 14:21:18;;;;;;;16.80;14.80;;;;;;;25.18;46.10;99330.15;109842;1270;22003;-83
2023/07/01 14:24:04;;;;;;;15.20;13.70;;;;;;;25.21;45.95;99334.93;109876;1270;22072;-83
2023/07/01 14:26:49;;;;;;;17.30;15.60;;;;;;;25.20;46.08;99334.52;110237;1270;21998;-85
2023/07/01 14:29:30;;;;;;;14.80;13.30;;;;;;;25.12;45.93;99334.52;110190;1264;21989;-81
2023/07/01 14:32:16;;;;;;;15.60;14.10;;;;;;;25.03;46.17;99331.43;110957;1264;22054;-80
2023/07/01 14:35:10;;;;;;;15.10;13.60;;;;;;;24.99;46.18;99333.81;111260;1259;23722;-84
2023/07/01 14:37:47;;;;;;;33.20;29.90;;;;;;;24.95;46.05;99330.95;111145;1263;21970;-80
2023/07/01 14:40:40;;;;;;;17.30;15.60;;;;;;;24.91;46.30;99333.02;110518;1267;22984;-83
2023/07/01 14:43:52;;;;;;;14.50;13.00;;;;;;;24.88;46.74;99344.92;110319;1268;22133;-80
2023/07/01 14:46:40;;;;;;;21.40;11.10;;;;;;;24.76;47.34;99359.23;110495;1266;23618;-79
2023/07/01 14:49:26;;;;;;;13.10;10.00;;;;;;;24.64;48.49;99361.00;110836;1265;21975;-85
2023/07/01 14:52:05;;;;;;;21.50;9.20;;;;;;;24.42;49.58;99348.60;110137;1272;22002;-87
2023/07/01 14:55:12;;;;;;;18.30;8.90;;;;;;;24.22;50.91;99352.48;110368;1266;21955;-83
2023/07/01 14:58:30;;;;;;;15.70;9.50;;;;;;;23.95;52.16;99348.48;110933;1260;21982;-82
2023/07/01 15:01:30;;;;;;;13.80;10.00;;;;;;;23.80;52.83;99349.08;110667;1265;21974;-83
2023/07/01 15:04:32;;;;;;;15.80;9.00;;;;;;;23.70;53.76;99351.71;109950;1271;22013;-85
2023/07/01 15:07:48;;;;;;;12.40;9.50;;;;;;;23.65;54.65;99347.66;110009;1271;23637;-83
2023/07/01 15:10:37;;;;;;;19.30;11.00;;;;;;;23.63;55.35;99340.08;110572;1266;22440;-84
2023/07/01 15:13:23;;;;;;;16.80;9.30;;;;;;;23.59;55.87;99326.63;110573;1266;23744;-85
2023/07/01 15:16:39;;;;;;;21.80;10.60;;;;;;;23.66;56.03;99339.54;110281;1266;22006;-83
2023/07/01 15:20:07;;;;;;;11.50;10.30;;;;;;;23.74;56.37;99349.12;109587;1274;22545;-84
2023/07/01 15:23:38;;;;;;;15.20;10.10;;;;;;;23.81;56.32;99346.15;109845;1272;22015;-83
2023/07/01 15:26:38;;;;;;;13.00;9.90;;;;;;;23.86;56.31;99343.05;109273;1275;21995;-82
2023/07/01 15:29:34;;;;;;;12.20;8.90;;;;;;;23.91;56.24;99344.31;109475;1271;23676;-81
2023/07/01 15:32:29;;;;;;;13.50;9.60;;;;;;;23.95;56.31;99344.23;109318;1275;21982;-81
2023/07/01 15:35:10;;;;;;;14.30;9.00;;;;;;;23.97;56.28;99343.48;109297;1275;22113;-83
2023/07/01 15:38:51;;;;;;;;;;;;;;;;;;;;;
2023/07/01 15:41:50;;;;;;;12.30;8.50;;;;;;;23.98;54.30;99342.61;109494;1273;23753;-81
2023/07/01 15:45:13;;;;;;;;;;;;;;;;;;;;;
2023/07/01 15:48:41;;;;;;;9.20;8.30;;;;;;;23.93;52.94;99337.21;109895;1273;23069;-83
2023/07/01 15:51:47;;;;;;;15.80;8.10;;;;;;;23.97;52.61;99335.19;109750;1272;22357;-84
2023/07/01 15:54:19;;;;;;;;;;;;;;;23.96;52.04;99326.33;109932;1272;22059;-81
2023/07/01 15:56:56;;;;;;;8.50;7.70;;;;;;;23.94;52.17;99331.75;109510;1274;21999;-82
2023/07/01 15:59:33;;;;;;;10.60;8.70;;;;;;;24.02;52.18;99333.38;109021;1280;23139;-81
2023/07/01 16:02:05;;;;;;;9.90;9.00;;;;;;;24.08;51.87;99337.98;109210;1280;22020;-80
2023/07/01 16:04:39;;;;;;;10.70;8.40;;;;;;;24.10;51.70;99335.29;109113;1277;23022;-81
2023/07/01 16:07:21;;;;;;;10.30;9.30;;;;;;;24.10;51.31;99331.89;108962;1281;21994;-82
2023/07/01 16:10:05;;;;;;;11.50;8.40;;;;;;;24.07;51.17;99331.16;109048;1281;22443;-83
2023/07/01 16:12:50;;;;;;;9.60;8.70;;;;;;;24.08;51.14;99326.49;109013;1281;22628;-82
2023/07/01 16:15:31;;;;;;;9.80;8.80;;;;;;;24.13;51.06;99329.78;109024;1277;23683;-82
2023/07/01 16:18:42;;;;;;;9.10;8.20;;;;;;;24.19;51.00;99328.23;109076;1279;21997;-81
2023/07/01 16:21:17;;;;;;;9.30;8.50;;;;;;;24.23;51.03;99328.58;108857;1282;22093;-82
2023/07/01 16:23:59;;;;;;;10.20;9.30;;;;;;;24.30;50.89;99328.50;109325;1273;23041;-81
2023/07/01 16:26:41;;;;;;;12.00;10.60;;;;;;;24.32;50.61;99326.66;109995;1269;21996;-81